Time;durP1;ratioP1;P1;durP2;ratioP2;P2;SDS_P1;SDS_P2;PMS_P1;PMS_P2;Temp;Humidity;BMP_temperature;BMP_pressure;BME280_temperature;BME280_humidity;BME280_pressure;Samples;Min_cycle;Max_cycle;Signal;HPM_P1;HPM_P2
2023/03/27 00:00:32;;;;;;;27.80;9.80;;;;;;;10.83;71.78;97356.60;67651;1281;1018070;-61
2023/03/27 00:03:54;;;;;;;26.60;10.20;;;;;;;10.67;71.86;97352.86;67603;1281;1019086;-60
2023/03/27 00:06:58;;;;;;;25.90;9.40;;;;;;;10.57;72.80;97353.02;67633;1281;1016252;-61
2023/03/27 00:10:00;;;;;;;24.80;9.40;;;;;;;10.81;71.98;97344.37;67619;1281;1016108;-61
2023/03/27 00:13:03;;;;;;;28.40;9.40;;;;;;;11.01;71.53;97337.58;67625;1281;1016311;-60
2023/03/27 00:16:05;;;;;;;28.90;11.00;;;;;;;11.09;71.50;97334.08;67647;1281;1016497;-61
2023/03/27 00:19:08;;;;;;;26.30;9.30;;;;;;;11.12;71.47;97337.73;67634;1281;1016981;-61
2023/03/27 00:22:11;;;;;;;26.60;9.40;;;;;;;11.23;71.31;97337.94;67577;1281;1016411;-61
2023/03/27 00:25:14;;;;;;;26.50;9.30;;;;;;;11.27;71.61;97335.36;67659;1281;1016312;-61
2023/03/27 00:28:16;;;;;;;27.50;9.10;;;;;;;11.42;70.99;97329.95;67595;1281;1016389;-61
2023/03/27 00:31:19;;;;;;;28.10;8.80;;;;;;;11.52;70.93;97330.52;67545;1281;1016328;-61
2023/03/27 00:34:21;;;;;;;27.60;9.40;;;;;;;11.56;70.88;97333.70;67543;1281;1016463;-61
2023/03/27 00:37:23;;;;;;;26.50;8.80;;;;;;;11.52;70.77;97333.86;67652;1281;1019105;-60
2023/03/27 00:40:26;;;;;;;25.20;8.40;;;;;;;11.60;70.67;97332.38;67642;1281;1015799;-61
2023/03/27 00:43:28;;;;;;;25.30;9.00;;;;;;;11.53;70.64;97327.95;67629;1281;1016390;-61
2023/03/27 00:46:31;;;;;;;26.60;9.10;;;;;;;11.56;70.70;97327.54;67577;1281;1016852;-60
2023/03/27 00:49:33;;;;;;;;;;;;;;;11.66;70.23;97332.97;67611;1281;1016366;-60
2023/03/27 00:52:36;;;;;;;32.50;11.60;;;;;;;11.70;70.04;97326.11;67631;1281;1016411;-61
2023/03/27 00:55:38;;;;;;;29.80;10.40;;;;;;;11.61;70.17;97324.31;67601;1281;1016484;-61
2023/03/27 00:58:40;;;;;;;30.20;11.20;;;;;;;11.51;70.26;97323.05;67534;1281;1018267;-61
2023/03/27 01:01:43;;;;;;;27.70;10.90;;;;;;;11.44;70.37;97323.02;67540;1281;1018658;-61
2023/03/27 01:04:45;;;;;;;25.00;9.40;;;;;;;11.27;71.11;97324.15;67580;1281;1016357;-61
2023/03/27 01:07:48;;;;;;;26.90;8.80;;;;;;;11.19;71.64;97323.62;67587;1281;1018191;-60
2023/03/27 01:10:50;;;;;;;27.50;9.20;;;;;;;11.22;71.48;97323.35;67633;1281;1016391;-60
2023/03/27 01:13:53;;;;;;;32.70;12.30;;;;;;;11.23;72.13;97320.80;67595;1281;1016279;-60
2023/03/27 01:16:55;;;;;;;34.80;14.00;;;;;;;11.34;71.41;97313.14;67520;1281;1016362;-61
2023/03/27 01:19:58;;;;;;;38.30;14.60;;;;;;;11.42;71.27;97315.78;64966;1281;5380882;-61
2023/03/27 01:23:00;;;;;;;29.20;10.80;;;;;;;11.47;71.41;97313.44;67652;1281;1019609;-61
2023/03/27 01:26:03;;;;;;;26.80;9.30;;;;;;;11.50;71.49;97312.12;67625;1281;1016625;-61
2023/03/27 01:29:08;;;;;;;34.70;12.40;;;;;;;11.59;71.01;97315.39;67649;1281;1016500;-60
2023/03/27 01:32:11;;;;;;;27.50;9.30;;;;;;;11.58;71.31;97310.85;67646;1281;1016685;-60
2023/03/27 01:35:13;;;;;;;25.10;9.10;;;;;;;11.62;71.11;97310.67;67607;1281;1016321;-61
2023/03/27 01:38:15;;;;;;;25.00;8.50;;;;;;;11.58;70.97;97305.49;67607;1281;1016409;-60
2023/03/27 01:41:18;;;;;;;25.50;8.90;;;;;;;11.59;70.57;97303.25;67660;1281;1015966;-61
2023/03/27 01:44:20;;;;;;;25.50;9.50;;;;;;;11.52;70.47;97297.80;67588;1281;1016110;-61
2023/03/27 01:47:23;;;;;;;23.90;9.00;;;;;;;11.50;70.95;97294.80;67649;1281;1016359;-61
2023/03/27 01:50:26;;;;;;;29.10;10.00;;;;;;;11.68;70.93;97295.48;67518;1281;1016349;-61
2023/03/27 01:53:28;;;;;;;26.40;10.00;;;;;;;11.76;70.96;97287.91;67654;1281;1016235;-61
2023/03/27 01:56:31;;;;;;;25.10;8.60;;;;;;;11.88;70.97;97288.11;67667;1281;1015993;-60
2023/03/27 01:59:33;;;;;;;25.70;8.90;;;;;;;11.90;70.82;97284.20;67543;1281;1016479;-60
2023/03/27 02:02:36;;;;;;;26.30;9.60;;;;;;;11.87;70.93;97287.31;67627;1281;1016301;-61
2023/03/27 02:05:38;;;;;;;25.20;8.70;;;;;;;11.92;71.03;97283.52;67568;1281;1015981;-61
2023/03/27 02:08:41;;;;;;;25.60;8.80;;;;;;;11.85;70.15;97278.15;67550;1281;1016406;-61
2023/03/27 02:11:43;;;;;;;25.70;8.80;;;;;;;11.73;70.38;97283.27;67657;1281;1016411;-61
2023/03/27 02:14:46;;;;;;;25.80;9.30;;;;;;;11.78;70.11;97279.67;67612;1281;1017171;-60
2023/03/27 02:17:48;;;;;;;24.40;8.80;;;;;;;11.74;70.05;97274.42;67611;1281;1016433;-60
2023/03/27 02:20:51;;;;;;;;;;;;;;;11.73;70.37;97272.79;67636;1281;1016697;-61
2023/03/27 02:23:54;;;;;;;26.00;8.80;;;;;;;11.64;70.61;97268.34;67655;1281;1016524;-60
2023/03/27 02:26:56;;;;;;;25.70;9.00;;;;;;;11.68;70.55;97267.10;67567;1281;1016507;-61
2023/03/27 02:29:59;;;;;;;24.70;8.90;;;;;;;11.77;70.53;97265.92;67600;1281;1016383;-61
2023/03/27 02:33:01;;;;;;;25.50;8.70;;;;;;;11.91;70.41;97262.48;67656;1281;1016492;-60
2023/03/27 02:36:04;;;;;;;26.50;9.70;;;;;;;12.09;70.86;97263.30;67619;1281;1016376;-61
2023/03/27 02:39:07;;;;;;;27.20;8.80;;;;;;;12.26;70.06;97265.36;67629;1281;1018242;-60
2023/03/27 02:42:09;;;;;;;22.60;8.70;;;;;;;12.21;69.51;97262.88;67607;1281;1016497;-62
2023/03/27 02:45:12;;;;;;;26.80;9.90;;;;;;;12.16;69.63;97260.69;67578;1281;1016360;-61
2023/03/27 02:48:15;;;;;;;29.30;12.20;;;;;;;12.08;70.26;97258.13;67609;1281;1016400;-60
2023/03/27 02:51:17;;;;;;;29.10;10.90;;;;;;;12.01;70.82;97256.28;67624;1281;1016334;-61
2023/03/27 02:54:20;;;;;;;28.20;11.20;;;;;;;12.00;70.80;97249.55;67648;1281;1016493;-61
2023/03/27 02:57:22;;;;;;;28.30;10.50;;;;;;;12.00;71.14;97241.85;67595;1281;1017355;-60
2023/03/27 03:00:25;;;;;;;34.90;15.00;;;;;;;12.07;70.79;97242.98;67636;1281;1016399;-60
2023/03/27 03:03:27;;;;;;;33.30;13.50;;;;;;;11.99;70.94;97240.21;67642;1281;1016486;-60
2023/03/27 03:06:29;;;;;;;25.50;9.70;;;;;;;11.83;70.89;97242.80;67648;1281;1016436;-60
2023/03/27 03:09:32;;;;;;;24.70;9.80;;;;;;;11.72;72.06;97242.04;67566;1281;1019462;-61
2023/03/27 03:12:35;;;;;;;26.40;10.00;;;;;;;11.86;72.02;97243.80;67590;1281;1016271;-61
2023/03/27 03:15:38;;;;;;;;;;;;;;;11.87;72.01;97247.23;67665;1281;1016713;-61
2023/03/27 03:18:40;;;;;;;25.50;10.10;;;;;;;11.94;71.67;97253.60;67594;1281;1016877;-61
2023/03/27 03:21:43;;;;;;;25.60;10.10;;;;;;;11.97;71.19;97256.42;67621;1281;1017137;-60
2023/03/27 03:24:46;;;;;;;25.00;9.20;;;;;;;11.93;70.53;97262.05;67634;1281;1016405;-61
2023/03/27 03:27:48;;;;;;;25.80;9.90;;;;;;;11.85;70.64;97260.52;67631;1281;1016385;-61
2023/03/27 03:30:51;;;;;;;27.10;10.40;;;;;;;11.77;70.58;97260.83;67607;1281;1018247;-61
2023/03/27 03:33:53;;;;;;;27.50;9.90;;;;;;;11.78;71.11;97262.53;67632;1281;1016428;-61
2023/03/27 03:36:56;;;;;;;28.60;10.70;;;;;;;11.89;70.99;97267.15;67651;1281;1015827;-61
2023/03/27 03:39:58;;;;;;;26.20;9.50;;;;;;;11.95;70.55;97270.18;67621;1281;1016464;-60
2023/03/27 03:43:00;;;;;;;28.50;10.40;;;;;;;11.88;71.09;97269.54;67622;1281;1016415;-60
2023/03/27 03:46:04;;;;;;;27.60;10.20;;;;;;;11.97;70.99;97273.27;67610;1281;1018533;-62
2023/03/27 03:49:06;;;;;;;26.30;10.40;;;;;;;11.97;70.76;97277.30;67669;1281;1016046;-60
2023/03/27 03:52:09;;;;;;;25.90;10.60;;;;;;;11.88;70.81;97276.02;67605;1281;1016322;-61
2023/03/27 03:55:12;;;;;;;25.40;11.00;;;;;;;11.77;70.80;97277.35;67636;1281;1016271;-60
2023/03/27 03:58:15;;;;;;;26.10;10.70;;;;;;;11.65;71.29;97282.29;67651;1281;1016391;-61
2023/03/27 04:01:19;;;;;;;26.70;11.40;;;;;;;11.47;71.48;97280.90;67632;1281;1016715;-61
2023/03/27 04:04:22;;;;;;;31.20;12.00;;;;;;;11.43;71.39;97279.27;67637;1281;1016282;-60
2023/03/27 04:07:24;;;;;;;29.10;12.00;;;;;;;11.44;71.53;97279.59;67649;1281;1016296;-61
2023/03/27 04:10:26;;;;;;;29.40;12.00;;;;;;;11.40;71.87;97278.73;67663;1281;1016337;-61
2023/03/27 04:13:29;;;;;;;29.00;12.60;;;;;;;11.38;71.48;97281.32;67605;1281;1016269;-61
2023/03/27 04:16:32;;;;;;;28.90;12.70;;;;;;;11.34;71.52;97276.77;67618;1281;1016173;-60
2023/03/27 04:19:35;;;;;;;29.40;12.80;;;;;;;11.46;71.28;97281.55;67619;1281;1016422;-61
2023/03/27 04:22:38;;;;;;;34.60;14.00;;;;;;;11.50;71.47;97284.31;67632;1281;1016068;-61
2023/03/27 04:25:40;;;;;;;34.20;14.70;;;;;;;11.55;71.62;97290.48;67663;1281;1016348;-61
2023/03/27 04:28:42;;;;;;;35.40;14.80;;;;;;;11.57;71.44;97288.87;67675;1281;1016507;-61
2023/03/27 04:31:45;;;;;;;34.90;15.40;;;;;;;11.55;71.56;97292.74;67664;1281;1016432;-61
2023/03/27 04:34:49;;;;;;;38.10;17.60;;;;;;;11.56;71.39;97290.92;67540;1281;1016511;-61
2023/03/27 04:37:51;;;;;;;38.00;16.60;;;;;;;11.54;71.66;97293.60;67602;1281;1016221;-61
2023/03/27 04:40:54;;;;;;;36.20;17.10;;;;;;;11.52;71.70;97288.68;67618;1281;1016416;-61
2023/03/27 04:43:56;;;;;;;39.40;17.80;;;;;;;11.48;71.78;97286.96;67602;1281;1016228;-60
2023/03/27 04:47:00;;;;;;;37.80;17.70;;;;;;;11.42;72.04;97286.55;67678;1281;1017689;-60
2023/03/27 04:50:03;;;;;;;38.30;18.30;;;;;;;11.55;71.57;97282.96;67586;1281;1016416;-60
2023/03/27 04:53:07;;;;;;;40.40;18.70;;;;;;;11.65;71.25;97284.04;67524;1281;1016361;-61
2023/03/27 04:56:10;;;;;;;45.80;21.50;;;;;;;11.61;70.72;97285.75;67635;1281;1016404;-61
2023/03/27 04:59:14;;;;;;;46.70;23.30;;;;;;;11.42;71.39;97285.86;67631;1281;1015998;-62
2023/03/27 05:02:16;;;;;;;43.50;20.00;;;;;;;11.30;72.00;97286.90;67631;1281;1015958;-60
2023/03/27 05:05:19;;;;;;;40.30;19.90;;;;;;;11.30;72.55;97289.02;67650;1281;1016521;-60
2023/03/27 05:08:22;;;;;;;38.70;18.30;;;;;;;11.25;73.80;97287.15;67606;1281;1016174;-61
2023/03/27 05:11:24;;;;;;;42.10;19.50;;;;;;;11.31;72.97;97287.73;67624;1281;1016423;-60
2023/03/27 05:14:26;;;;;;;41.70;19.50;;;;;;;11.26;73.35;97288.16;67628;1281;1016649;-61
2023/03/27 05:17:29;;;;;;;41.80;19.40;;;;;;;11.33;73.16;97287.77;67633;1281;1016816;-60
2023/03/27 05:20:31;;;;;;;41.90;20.20;;;;;;;11.30;73.50;97288.56;67622;1281;1016432;-61
2023/03/27 05:23:34;;;;;;;38.50;19.40;;;;;;;11.22;74.24;97288.55;67590;1281;1016270;-62
2023/03/27 05:26:37;;;;;;;40.80;20.50;;;;;;;11.12;73.93;97286.20;67639;1281;1016209;-61
2023/03/27 05:29:41;;;;;;;40.60;18.80;;;;;;;11.10;74.33;97289.74;67628;1281;1016932;-61
2023/03/27 05:32:43;;;;;;;41.50;19.50;;;;;;;10.91;75.47;97291.87;67695;1281;1017331;-60
2023/03/27 05:35:46;;;;;;;40.80;21.20;;;;;;;10.84;75.69;97293.73;67642;1281;1016989;-61
2023/03/27 05:38:49;;;;;;;;;;;;;;;10.87;75.82;97295.36;67646;1281;1016814;-60
2023/03/27 05:41:52;;;;;;;38.00;19.40;;;;;;;10.94;76.15;97296.15;67626;1281;1015953;-61
2023/03/27 05:44:54;;;;;;;41.50;20.40;;;;;;;11.00;75.69;97295.87;67636;1281;1016375;-61
2023/03/27 05:47:57;;;;;;;38.70;18.70;;;;;;;10.98;75.83;97297.40;67577;1281;1016855;-61
2023/03/27 05:50:59;;;;;;;39.30;17.50;;;;;;;11.03;75.87;97296.27;67662;1281;1016387;-61
2023/03/27 05:54:02;;;;;;;34.90;16.50;;;;;;;10.98;76.04;97299.38;67635;1281;1016667;-60
2023/03/27 05:57:04;;;;;;;32.80;14.80;;;;;;;10.95;75.85;97298.56;67601;1281;1016149;-61
2023/03/27 06:00:10;;;;;;;34.10;16.00;;;;;;;10.97;75.97;97305.05;67596;1281;1016117;-61
2023/03/27 06:03:13;;;;;;;37.00;16.50;;;;;;;11.03;75.88;97308.02;67630;1281;1016368;-60
2023/03/27 06:06:15;;;;;;;30.50;14.30;;;;;;;11.15;75.82;97307.46;67645;1281;1017564;-61
2023/03/27 06:09:18;;;;;;;32.30;14.80;;;;;;;11.17;75.99;97306.66;67650;1281;1016400;-60
2023/03/27 06:12:20;;;;;;;30.60;13.30;;;;;;;11.14;76.38;97301.77;67611;1281;1016444;-60
2023/03/27 06:15:23;;;;;;;28.50;12.10;;;;;;;11.10;76.18;97302.70;67530;1281;1016262;-61
2023/03/27 06:18:26;;;;;;;28.40;12.30;;;;;;;11.03;76.71;97304.50;67609;1281;1015984;-61
2023/03/27 06:21:28;;;;;;;28.90;12.40;;;;;;;11.06;76.87;97309.01;67634;1281;1015657;-61
2023/03/27 06:24:31;;;;;;;27.50;11.90;;;;;;;11.17;76.45;97313.46;67612;1281;1016361;-60
2023/03/27 06:27:33;;;;;;;27.00;11.70;;;;;;;11.16;76.77;97319.17;67632;1281;1016015;-61
2023/03/27 06:30:36;;;;;;;27.20;12.10;;;;;;;11.17;76.47;97325.54;67659;1281;1016376;-60
2023/03/27 06:33:39;;;;;;;26.80;11.80;;;;;;;11.07;76.67;97331.44;67640;1281;1017198;-61
2023/03/27 06:36:42;;;;;;;26.70;11.10;;;;;;;11.07;76.70;97330.73;67634;1281;1016552;-61
2023/03/27 06:39:45;;;;;;;27.20;11.60;;;;;;;10.98;77.48;97338.53;67600;1281;1016993;-60
2023/03/27 06:42:49;;;;;;;27.80;11.40;;;;;;;11.09;77.21;97340.73;67613;1281;1016392;-60
2023/03/27 06:45:51;;;;;;;26.20;11.20;;;;;;;11.13;77.08;97348.27;67583;1281;1017340;-61
2023/03/27 06:48:54;;;;;;;27.60;11.50;;;;;;;11.10;77.21;97352.88;67669;1281;1016388;-61
2023/03/27 06:51:56;;;;;;;;;;;;;;;10.99;77.52;97352.28;67580;1281;1016497;-60
2023/03/27 06:54:59;;;;;;;28.80;12.40;;;;;;;10.94;78.45;97358.77;67605;1281;1016072;-60
2023/03/27 06:58:01;;;;;;;30.00;13.20;;;;;;;10.97;77.54;97366.55;67602;1281;1016242;-61
2023/03/27 07:01:04;;;;;;;30.40;13.50;;;;;;;10.85;77.60;97374.77;67659;1281;1019256;-61
2023/03/27 07:04:06;;;;;;;30.70;13.30;;;;;;;10.72;78.06;97381.13;67638;1281;1016608;-61
2023/03/27 07:07:09;;;;;;;29.50;13.60;;;;;;;10.68;78.43;97385.50;67637;1281;1017067;-61
2023/03/27 07:10:12;;;;;;;27.90;12.60;;;;;;;10.66;78.06;97389.63;67666;1281;1017260;-61
2023/03/27 07:13:15;;;;;;;29.90;13.00;;;;;;;10.58;78.38;97397.83;67642;1281;1016438;-62
2023/03/27 07:16:17;;;;;;;29.70;11.90;;;;;;;10.43;78.72;97403.32;67615;1281;1016478;-61
2023/03/27 07:19:20;;;;;;;29.50;12.30;;;;;;;10.31;78.98;97406.69;67646;1281;1016703;-60
2023/03/27 07:22:22;;;;;;;28.20;12.20;;;;;;;10.23;79.46;97410.11;67671;1281;1016358;-61
2023/03/27 07:25:25;;;;;;;28.10;12.30;;;;;;;10.23;79.33;97411.68;67655;1281;1015897;-61
2023/03/27 07:28:27;;;;;;;;;;;;;;;10.27;79.27;97411.38;67572;1281;1015956;-60
2023/03/27 07:31:30;;;;;;;26.40;10.50;;;;;;;10.34;79.28;97414.64;67548;1281;1015835;-62
2023/03/27 07:34:32;;;;;;;27.80;12.00;;;;;;;10.32;79.14;97418.33;67616;1281;1016288;-61
2023/03/27 07:37:36;;;;;;;29.90;12.50;;;;;;;10.33;79.03;97423.98;67638;1281;1016451;-60
2023/03/27 07:40:38;;;;;;;26.10;11.50;;;;;;;10.43;78.93;97431.78;67642;1281;1016878;-61
2023/03/27 07:43:41;;;;;;;27.30;11.90;;;;;;;10.41;78.72;97433.99;67645;1281;1016548;-60
2023/03/27 07:46:43;;;;;;;27.30;11.60;;;;;;;10.42;78.55;97434.14;67601;1281;1016205;-61
2023/03/27 07:49:45;;;;;;;28.40;11.80;;;;;;;10.29;78.40;97437.10;67621;1281;1016150;-62
2023/03/27 07:52:48;;;;;;;28.80;11.90;;;;;;;10.09;78.66;97437.81;67591;1281;1016376;-61
2023/03/27 07:55:52;;;;;;;27.90;12.00;;;;;;;10.01;79.23;97443.71;67634;1281;1016463;-62
2023/03/27 07:58:54;;;;;;;;;;;;;;;10.02;79.44;97444.79;67629;1281;1016325;-61
2023/03/27 08:01:57;;;;;;;32.00;12.80;;;;;;;10.03;79.25;97447.56;67613;1281;1016345;-60
2023/03/27 08:05:03;;;;;;;27.20;12.20;;;;;;;9.99;79.08;97451.88;67589;1281;1016403;-60
2023/03/27 08:08:06;;;;;;;28.60;12.70;;;;;;;9.95;79.53;97462.88;67608;1281;1016991;-61
2023/03/27 08:11:08;;;;;;;29.70;13.10;;;;;;;9.96;79.82;97468.20;67631;1281;1017484;-61
2023/03/27 08:14:11;;;;;;;33.50;14.70;;;;;;;10.00;79.37;97475.75;67653;1281;1018113;-61
2023/03/27 08:17:13;;;;;;;32.20;14.10;;;;;;;9.92;79.69;97481.95;67627;1281;1015945;-61
2023/03/27 08:20:16;;;;;;;39.10;18.00;;;;;;;9.88;79.53;97483.00;67589;1281;1016509;-61
2023/03/27 08:23:19;;;;;;;38.30;16.70;;;;;;;9.77;79.81;97486.27;67638;1281;1016554;-61
2023/03/27 08:26:22;;;;;;;32.80;14.70;;;;;;;9.78;80.03;97489.03;67610;1281;1016211;-61
2023/03/27 08:29:24;;;;;;;34.50;15.80;;;;;;;9.88;80.26;97493.11;67581;1281;1016377;-60
2023/03/27 08:32:27;;;;;;;35.40;16.50;;;;;;;9.88;80.35;97498.01;67624;1281;1016229;-60
2023/03/27 08:35:29;;;;;;;36.80;17.30;;;;;;;9.84;80.10;97500.95;67621;1281;1016019;-60
2023/03/27 08:38:33;;;;;;;37.80;17.60;;;;;;;9.80;80.28;97498.49;67498;1281;1016421;-60
2023/03/27 08:41:37;;;;;;;35.60;17.70;;;;;;;9.70;80.58;97495.08;67651;1281;1016324;-61
2023/03/27 08:44:40;;;;;;;37.80;18.00;;;;;;;9.70;81.13;97497.00;67602;1281;1015804;-60
2023/03/27 08:47:42;;;;;;;35.80;17.30;;;;;;;9.77;80.65;97505.66;67605;1281;1016361;-60
2023/03/27 08:50:45;;;;;;;;;;;;;;;9.78;79.63;97509.10;67610;1281;1015889;-61
2023/03/27 08:53:47;;;;;;;39.00;18.40;;;;;;;9.67;79.24;97514.50;67590;1281;1016266;-60
2023/03/27 08:56:50;;;;;;;37.30;17.40;;;;;;;9.48;80.59;97515.06;67622;1281;1016322;-60
2023/03/27 08:59:52;;;;;;;33.70;16.00;;;;;;;9.44;80.00;97522.05;67545;1281;1018873;-61
2023/03/27 09:02:55;;;;;;;;;;;;;;;9.37;80.31;97525.49;67616;1281;1016946;-61
2023/03/27 09:05:57;;;;;;;32.10;15.10;;;;;;;9.45;80.51;97524.38;67654;1281;1016411;-60
2023/03/27 09:09:01;;;;;;;33.80;14.60;;;;;;;9.55;79.09;97534.59;67640;1281;1016469;-60
2023/03/27 09:12:04;;;;;;;33.00;14.70;;;;;;;9.63;78.74;97527.92;67631;1281;1016837;-61
2023/03/27 09:15:06;;;;;;;31.50;14.00;;;;;;;9.68;78.39;97533.41;67595;1281;1016374;-61
2023/03/27 09:18:08;;;;;;;33.10;14.00;;;;;;;9.58;78.98;97537.48;67581;1281;1016354;-60
2023/03/27 09:21:11;;;;;;;29.90;12.90;;;;;;;9.46;78.59;97542.94;67592;1281;1016697;-61
2023/03/27 09:24:14;;;;;;;28.40;11.60;;;;;;;9.38;78.80;97539.89;67633;1281;1016408;-61
2023/03/27 09:27:17;;;;;;;30.60;9.70;;;;;;;9.27;77.59;97553.64;67615;1281;1016388;-61
2023/03/27 09:30:20;;;;;;;28.10;9.10;;;;;;;9.17;77.43;97559.09;67645;1281;1016440;-60
2023/03/27 09:33:23;;;;;;;;;;;;;;;9.00;77.75;97560.56;67589;1281;1016407;-60
2023/03/27 09:36:25;;;;;;;26.30;8.70;;;;;;;9.09;77.46;97560.76;67592;1281;1016853;-60
2023/03/27 09:39:27;;;;;;;27.30;9.00;;;;;;;9.13;78.01;97566.01;67605;1281;1016278;-61
2023/03/27 09:42:30;;;;;;;22.70;7.10;;;;;;;9.15;78.12;97572.88;67603;1281;1017208;-60
2023/03/27 09:45:32;;;;;;;24.80;6.70;;;;;;;9.12;77.82;97575.55;67611;1281;1018272;-60
2023/03/27 09:48:35;;;;;;;25.70;6.80;;;;;;;9.04;77.66;97583.82;67602;1281;1016667;-61
2023/03/27 09:51:37;;;;;;;;;;;;;;;9.06;78.35;97580.36;67657;1281;1016479;-60
2023/03/27 09:54:40;;;;;;;24.80;8.20;;;;;;;9.08;77.42;97594.86;67640;1281;1016336;-60
2023/03/27 09:57:42;;;;;;;29.20;8.10;;;;;;;8.94;77.77;97600.02;67588;1281;1016398;-60
2023/03/27 10:00:45;;;;;;;26.50;8.10;;;;;;;8.92;76.60;97602.12;67579;1281;1016477;-60
2023/03/27 10:03:51;;;;;;;27.10;9.80;;;;;;;8.91;76.90;97605.13;67650;1281;1017346;-60
2023/03/27 10:06:53;;;;;;;29.50;10.90;;;;;;;8.84;76.00;97608.94;67641;1281;1016416;-60
2023/03/27 10:09:57;;;;;;;27.10;11.00;;;;;;;8.71;75.48;97617.57;67607;1281;1016404;-60
2023/03/27 10:13:00;;;;;;;28.80;11.70;;;;;;;8.45;75.25;97631.79;67642;1281;1016385;-60
2023/03/27 10:16:03;;;;;;;29.70;11.90;;;;;;;8.24;76.21;97633.80;67586;1281;1016902;-60
2023/03/27 10:19:06;;;;;;;27.00;10.60;;;;;;;8.14;75.18;97660.59;67498;1283;1016288;-60
2023/03/27 10:22:09;;;;;;;27.80;10.70;;;;;;;7.93;75.38;97641.82;67506;1283;1016424;-60
2023/03/27 10:25:11;;;;;;;27.60;11.60;;;;;;;7.86;76.07;97654.71;67446;1283;1016489;-60
2023/03/27 10:28:14;;;;;;;;;;;;;;;7.75;76.11;97656.45;67494;1283;1016516;-60
2023/03/27 10:31:17;;;;;;;31.10;14.20;;;;;;;7.65;75.65;97652.98;67502;1283;1016379;-60
2023/03/27 10:34:19;;;;;;;30.70;13.40;;;;;;;7.54;75.91;97659.26;67520;1283;1018859;-60
2023/03/27 10:37:22;;;;;;;29.80;12.50;;;;;;;7.53;75.40;97662.29;67546;1283;1016742;-60
2023/03/27 10:40:24;;;;;;;28.40;10.70;;;;;;;7.45;76.51;97660.02;67528;1283;1016404;-60
2023/03/27 10:43:27;;;;;;;26.00;10.70;;;;;;;7.42;76.49;97669.63;67509;1283;1016444;-60
2023/03/27 10:46:29;;;;;;;26.90;9.50;;;;;;;7.53;75.71;97662.08;67569;1283;1016641;-60
2023/03/27 10:49:31;;;;;;;26.80;8.50;;;;;;;7.54;75.83;97660.34;67491;1283;1016354;-60
2023/03/27 10:52:34;;;;;;;21.30;7.50;;;;;;;7.57;75.47;97675.23;67548;1283;1019847;-60
2023/03/27 10:55:40;;;;;;;21.60;7.00;;;;;;;7.71;74.53;97675.36;67485;1283;1017995;-62
2023/03/27 10:58:42;;;;;;;20.00;6.60;;;;;;;7.53;73.83;97690.80;67490;1283;1016172;-60
2023/03/27 11:01:46;;;;;;;19.80;6.10;;;;;;;7.47;73.04;97692.66;67529;1283;1016004;-60
2023/03/27 11:04:48;;;;;;;21.20;6.30;;;;;;;7.48;71.81;97697.91;67504;1282;1016604;-60
2023/03/27 11:07:51;;;;;;;20.80;6.00;;;;;;;7.68;70.34;97696.41;67501;1283;1016483;-60
2023/03/27 11:10:53;;;;;;;19.60;5.60;;;;;;;8.08;69.19;97694.27;67549;1282;1016463;-60
2023/03/27 11:13:56;;;;;;;18.50;4.90;;;;;;;8.12;66.75;97699.70;67470;1282;1016521;-61
2023/03/27 11:16:58;;;;;;;;;;;;;;;8.24;66.44;97696.30;67489;1281;1020184;-60
2023/03/27 11:20:06;;;;;;;19.30;5.60;;;;;;;8.31;67.60;97695.47;67554;1281;1016314;-61
2023/03/27 11:23:08;;;;;;;18.60;5.10;;;;;;;8.43;66.66;97697.26;67620;1281;1018354;-60
2023/03/27 11:26:11;;;;;;;16.80;5.00;;;;;;;8.31;65.56;97704.56;67584;1281;1016130;-60
2023/03/27 11:29:13;;;;;;;19.80;4.40;;;;;;;8.23;64.98;97706.48;67601;1281;1016590;-60
2023/03/27 11:32:16;;;;;;;17.80;4.50;;;;;;;8.24;64.09;97719.15;67631;1281;1016760;-60
2023/03/27 11:35:19;;;;;;;;;;;;;;;8.25;63.03;97720.77;67615;1281;1016269;-60
2023/03/27 11:38:22;;;;;;;15.00;3.70;;;;;;;8.36;62.46;97726.11;67576;1281;1016394;-60
2023/03/27 11:41:25;;;;;;;12.10;3.60;;;;;;;8.56;62.53;97709.95;67619;1281;1016402;-60
2023/03/27 11:44:29;;;;;;;16.40;3.80;;;;;;;8.66;60.68;97716.05;67614;1281;1016444;-60
2023/03/27 11:47:31;;;;;;;11.10;3.40;;;;;;;8.66;60.75;97711.71;67559;1259;1016664;-60
2023/03/27 11:50:34;;;;;;;13.50;3.40;;;;;;;8.88;61.23;97707.52;67578;1281;1019615;-60
2023/03/27 11:53:37;;;;;;;12.50;3.30;;;;;;;8.79;59.43;97721.45;67589;1281;1016430;-61
2023/03/27 11:56:39;;;;;;;10.00;3.30;;;;;;;8.67;59.62;97725.41;67579;1281;1016390;-61
2023/03/27 11:59:41;;;;;;;13.60;3.10;;;;;;;8.60;58.66;97735.96;67619;1281;1018663;-60
2023/03/27 12:02:45;;;;;;;9.50;2.90;;;;;;;8.42;58.02;97749.91;67624;1281;1016597;-60
2023/03/27 12:05:47;;;;;;;12.50;3.50;;;;;;;8.33;57.39;97762.73;67556;1281;1015935;-60
2023/03/27 12:08:50;;;;;;;11.30;3.40;;;;;;;8.28;55.71;97770.36;67616;1281;1016497;-60
2023/03/27 12:11:52;;;;;;;11.00;3.10;;;;;;;8.37;57.01;97775.15;67528;1281;1016477;-60
2023/03/27 12:14:55;;;;;;;12.10;3.30;;;;;;;8.49;56.49;97777.50;67602;1281;1015989;-61
2023/03/27 12:17:57;;;;;;;12.20;3.80;;;;;;;8.49;55.80;97788.34;67561;1281;1018914;-60
2023/03/27 12:21:00;;;;;;;10.60;3.20;;;;;;;8.40;55.93;97794.48;67561;1281;1016472;-60
2023/03/27 12:24:03;;;;;;;14.80;4.30;;;;;;;8.30;56.29;97786.27;67579;1281;1016884;-60
2023/03/27 12:27:05;;;;;;;11.30;3.60;;;;;;;8.19;55.26;97797.14;67568;1281;1018910;-61
2023/03/27 12:30:08;;;;;;;15.00;3.80;;;;;;;8.20;55.27;97796.05;67630;1281;1019114;-60
2023/03/27 12:33:11;;;;;;;11.80;3.80;;;;;;;8.17;54.26;97805.13;67566;1281;1016415;-60
2023/03/27 12:36:13;;;;;;;13.50;3.70;;;;;;;8.15;54.45;97805.03;67595;1281;1016511;-60
2023/03/27 12:39:16;;;;;;;12.40;3.30;;;;;;;8.13;55.14;97795.77;67620;1281;1016337;-60
2023/03/27 12:42:19;;;;;;;12.80;3.50;;;;;;;8.09;55.03;97800.20;67565;1281;1017392;-60
2023/03/27 12:45:22;;;;;;;11.90;3.40;;;;;;;7.97;55.17;97799.08;67589;1281;1016160;-60
2023/03/27 12:48:25;;;;;;;10.00;3.20;;;;;;;8.08;55.54;97801.14;67617;1281;1016628;-60
2023/03/27 12:51:28;;;;;;;10.50;3.40;;;;;;;8.05;55.97;97813.01;67619;1281;1016219;-60
2023/03/27 12:54:30;;;;;;;12.80;3.30;;;;;;;8.01;55.35;97822.22;67613;1281;1016269;-60
2023/03/27 12:57:33;;;;;;;11.40;3.30;;;;;;;7.85;54.52;97846.02;67597;1281;1019485;-60
2023/03/27 13:00:36;;;;;;;11.60;3.40;;;;;;;7.81;55.66;97847.02;67568;1281;1016271;-60
2023/03/27 13:03:38;;;;;;;13.20;3.30;;;;;;;7.78;55.74;97861.08;67589;1281;1016444;-60
2023/03/27 13:06:41;;;;;;;15.00;3.60;;;;;;;7.59;55.42;97880.22;67631;1281;1016400;-60
2023/03/27 13:09:43;;;;;;;;;;;;;;;7.58;56.05;97879.77;67491;1281;1016121;-60
2023/03/27 13:12:46;;;;;;;10.40;3.20;;;;;;;7.60;56.30;97887.29;67629;1281;1016472;-60
2023/03/27 13:15:49;;;;;;;;;;;;;;;7.65;55.99;97885.23;67616;1281;1016437;-60
2023/03/27 13:18:51;;;;;;;12.90;3.60;;;;;;;7.69;56.46;97879.46;65032;1281;6369939;-60
2023/03/27 13:21:53;;;;;;;10.70;3.00;;;;;;;7.71;55.94;97874.95;67589;1281;1016251;-60
2023/03/27 13:24:56;;;;;;;14.70;3.50;;;;;;;7.55;55.69;97888.86;67552;1281;1016145;-60
2023/03/27 13:27:58;;;;;;;12.90;3.50;;;;;;;7.44;56.07;97879.83;67655;1281;1016402;-60
2023/03/27 13:31:01;;;;;;;12.50;3.30;;;;;;;7.42;55.79;97886.34;67618;1281;1016490;-61
2023/03/27 13:34:03;;;;;;;14.30;3.60;;;;;;;7.37;55.94;97887.52;67578;1281;1016342;-60
2023/03/27 13:37:06;;;;;;;12.80;3.20;;;;;;;7.45;55.74;97897.80;67605;1281;1018098;-60
2023/03/27 13:40:09;;;;;;;10.60;3.00;;;;;;;7.29;55.56;97902.48;67601;1281;1019589;-60
2023/03/27 13:43:11;;;;;;;10.10;3.00;;;;;;;7.29;54.39;97916.06;67594;1281;1016511;-60
2023/03/27 13:46:17;;;;;;;13.80;4.10;;;;;;;7.23;54.44;97912.05;67584;1281;1016338;-60
2023/03/27 13:49:21;;;;;;;11.80;3.20;;;;;;;7.33;54.34;97922.92;67637;1281;1016446;-60
2023/03/27 13:52:23;;;;;;;8.50;2.80;;;;;;;7.21;53.58;97924.69;67568;1281;1016382;-60